Time;durP1;ratioP1;P1;durP2;ratioP2;P2;SDS_P1;SDS_P2;PMS_P1;PMS_P2;Temp;Humidity;BMP_temperature;BMP_pressure;BME280_temperature;BME280_humidity;BME280_pressure;Samples;Min_cycle;Max_cycle;Signal;HPM_P1;HPM_P2
2023/05/18 00:01:14;;;;;;;0.20;0.20;;;;;;;8.25;66.24;98327.94;5059219;28;20447;-71
2023/05/18 00:03:41;;;;;;;0.63;0.63;;;;;;;8.26;66.12;98331.44;5067467;28;20044;-72
2023/05/18 00:06:09;;;;;;;0.95;0.95;;;;;;;8.22;66.17;98330.06;5047457;28;20037;-72
2023/05/18 00:08:38;;;;;;;0.63;0.63;;;;;;;8.06;67.44;98325.53;5063997;28;20397;-72
2023/05/18 00:11:07;;;;;;;0.73;0.73;;;;;;;8.03;68.50;98323.19;5066307;28;20037;-73
2023/05/18 00:13:36;;;;;;;0.68;0.68;;;;;;;8.01;68.86;98330.50;5051919;28;20045;-73
2023/05/18 00:16:03;;;;;;;0.75;0.75;;;;;;;7.89;69.44;98332.59;5051781;28;20040;-72
2023/05/18 00:18:32;;;;;;;0.80;0.80;;;;;;;7.89;69.35;98324.63;5071444;28;20045;-72
2023/05/18 00:21:00;;;;;;;0.80;0.80;;;;;;;7.84;69.84;98332.25;5062154;28;20049;-73
2023/05/18 00:23:29;;;;;;;0.90;0.90;;;;;;;7.82;70.25;98330.75;5063021;28;20526;-73
2023/05/18 00:25:57;;;;;;;0.75;0.75;;;;;;;7.71;70.49;98329.19;5051575;28;20568;-72
2023/05/18 00:28:25;;;;;;;0.30;0.30;;;;;;;7.67;70.26;98325.22;5057509;28;20434;-70
2023/05/18 00:30:54;;;;;;;0.80;0.80;;;;;;;7.69;70.26;98324.03;5062851;28;20045;-70
2023/05/18 00:33:22;;;;;;;0.65;0.65;;;;;;;7.73;70.12;98327.22;5059297;28;20041;-69
2023/05/18 00:35:50;;;;;;;0.60;0.60;;;;;;;7.73;70.06;98322.75;5041168;28;20053;-69
2023/05/18 00:38:18;;;;;;;0.60;0.60;;;;;;;7.72;70.03;98330.88;5066560;28;20049;-69
2023/05/18 00:40:45;;;;;;;0.73;0.73;;;;;;;7.56;71.32;98328.13;5040538;28;20056;-69
2023/05/18 00:43:13;;;;;;;0.98;0.98;;;;;;;7.40;72.13;98328.84;5057839;28;20048;-69
2023/05/18 00:45:40;;;;;;;0.60;0.60;;;;;;;7.34;72.46;98337.47;5069417;28;20123;-69
2023/05/18 00:48:09;;;;;;;0.68;0.68;;;;;;;7.34;72.37;98340.13;5064839;28;20045;-69
2023/05/18 00:50:37;;;;;;;0.20;0.20;;;;;;;7.41;71.70;98343.81;5041814;28;20479;-69
2023/05/18 00:53:05;;;;;;;0.95;0.95;;;;;;;7.59;70.20;98346.41;5067243;28;20071;-69
2023/05/18 00:55:33;;;;;;;0.63;0.63;;;;;;;7.49;71.13;98346.50;5065705;28;20080;-69
2023/05/18 00:58:01;;;;;;;0.85;0.85;;;;;;;7.40;71.69;98342.13;5062015;28;20037;-69
2023/05/18 01:00:29;;;;;;;0.70;0.70;;;;;;;7.14;73.13;98351.91;5059313;28;20048;-69
2023/05/18 01:02:56;;;;;;;0.75;0.75;;;;;;;7.24;71.71;98347.34;5069528;28;20518;-69
2023/05/18 01:05:26;;;;;;;0.60;0.60;;;;;;;7.31;71.45;98349.22;5063471;28;20409;-70
2023/05/18 01:07:55;;;;;;;0.65;0.65;;;;;;;7.47;70.76;98356.47;5069896;28;20098;-70
2023/05/18 01:10:22;;;;;;;0.30;0.30;;;;;;;7.44;71.51;98361.25;5069798;28;20500;-70
2023/05/18 01:12:53;;;;;;;0.80;0.80;;;;;;;7.27;72.33;98352.31;5055530;28;20050;-70
2023/05/18 01:15:23;;;;;;;1.05;1.05;;;;;;;7.33;71.72;98355.22;5062687;28;20060;-70
2023/05/18 01:18:03;;;;;;;0.85;0.85;;;;;;;7.27;72.24;98350.50;5061013;28;20070;-70
2023/05/18 01:20:44;;;;;;;0.65;0.65;;;;;;;7.25;71.62;98355.16;5071568;28;20048;-70
2023/05/18 01:23:24;;;;;;;0.30;0.30;;;;;;;7.02;72.32;98353.13;5064755;28;20453;-70
2023/05/18 01:26:05;;;;;;;0.77;0.77;;;;;;;6.93;72.55;98352.25;5063353;28;20040;-70
2023/05/18 01:28:33;;;;;;;0.75;0.75;;;;;;;6.87;73.41;98356.31;5064451;28;20033;-69
2023/05/18 01:31:01;;;;;;;0.77;0.77;;;;;;;6.93;72.55;98358.38;5050759;28;20044;-69
2023/05/18 01:33:33;;;;;;;0.70;0.70;;;;;;;6.91;72.65;98360.34;5055964;28;20076;-70
2023/05/18 01:36:01;;;;;;;1.33;1.33;;;;;;;7.04;71.77;98359.13;5061337;28;20042;-69
2023/05/18 01:38:29;;;;;;;0.68;0.68;;;;;;;7.11;71.22;98360.19;5062256;28;20045;-70
2023/05/18 01:41:02;;;;;;;0.50;0.50;;;;;;;6.90;72.49;98356.03;5071855;28;20051;-69
2023/05/18 01:43:33;;;;;;;0.70;0.70;;;;;;;6.92;72.31;98350.56;5042508;28;20049;-68
2023/05/18 01:46:17;;;;;;;0.52;0.52;;;;;;;6.66;73.59;98347.84;5063768;28;20098;-68
2023/05/18 01:48:49;;;;;;;0.77;0.77;;;;;;;6.59;73.94;98339.66;5073715;28;20052;-68
2023/05/18 01:51:20;;;;;;;0.73;0.73;;;;;;;6.74;73.26;98339.97;5070275;28;20128;-68
2023/05/18 01:53:51;;;;;;;;;;;;;;;6.81;72.91;98345.50;5063334;28;20040;-69
2023/05/18 01:56:21;;;;;;;0.70;0.70;;;;;;;6.84;72.73;98348.69;5067076;28;19921;-70
2023/05/18 01:58:49;;;;;;;0.80;0.80;;;;;;;6.89;72.51;98350.88;5055596;28;20056;-72
2023/05/18 02:01:18;;;;;;;0.50;0.50;;;;;;;6.76;73.03;98343.28;5049412;28;20571;-70
2023/05/18 02:03:46;;;;;;;0.73;0.73;;;;;;;6.75;72.98;98344.28;5062539;28;20084;-70
2023/05/18 02:06:14;;;;;;;0.75;0.75;;;;;;;6.75;72.77;98346.13;5068256;28;20053;-70
2023/05/18 02:08:42;;;;;;;0.80;0.80;;;;;;;6.70;72.91;98341.25;5044778;28;20135;-70
2023/05/18 02:11:09;;;;;;;0.77;0.77;;;;;;;6.65;73.12;98351.47;5042942;28;20080;-70
2023/05/18 02:13:38;;;;;;;0.68;0.68;;;;;;;6.61;73.33;98344.81;5060579;28;20128;-69
2023/05/18 02:16:07;;;;;;;0.60;0.60;;;;;;;6.51;73.67;98341.41;5068079;28;20044;-70
2023/05/18 02:18:35;;;;;;;0.35;0.35;;;;;;;6.53;73.61;98344.75;5048247;28;20392;-70
2023/05/18 02:21:03;;;;;;;0.88;0.88;;;;;;;6.29;74.24;98345.31;5066426;28;20743;-69
2023/05/18 02:23:32;;;;;;;0.70;0.70;;;;;;;6.40;73.83;98344.28;5064736;28;20071;-70
2023/05/18 02:26:00;;;;;;;0.57;0.57;;;;;;;6.26;74.10;98343.78;5069451;28;20385;-70
2023/05/18 02:28:28;;;;;;;0.30;0.30;;;;;;;6.09;74.58;98344.59;5064378;28;20474;-70
2023/05/18 02:31:06;;;;;;;0.80;0.80;;;;;;;6.11;73.97;98347.09;5069476;28;20496;-70
2023/05/18 02:33:38;;;;;;;0.93;0.93;;;;;;;6.12;74.12;98340.81;5067551;28;20044;-69
2023/05/18 02:36:11;;;;;;;0.80;0.80;;;;;;;5.96;75.17;98338.81;5086720;22;20052;-74
2023/05/18 02:38:39;;;;;;;0.73;0.73;;;;;;;5.99;74.99;98343.81;5059279;28;20047;-74
2023/05/18 02:41:07;;;;;;;0.82;0.82;;;;;;;5.97;75.50;98337.00;5062826;28;20037;-74
2023/05/18 02:43:35;;;;;;;0.20;0.20;;;;;;;6.04;75.00;98336.25;5069457;28;20371;-75
2023/05/18 02:46:02;;;;;;;1.10;1.10;;;;;;;6.06;74.70;98342.22;5059376;28;20041;-74
2023/05/18 02:48:33;;;;;;;0.85;0.85;;;;;;;6.02;74.91;98345.34;5056753;28;20537;-74
2023/05/18 02:51:01;;;;;;;0.70;0.70;;;;;;;5.95;74.91;98346.88;5075889;28;20128;-74
2023/05/18 02:53:28;;;;;;;0.30;0.30;;;;;;;5.79;75.15;98344.84;5071042;28;20450;-74
2023/05/18 02:56:02;;;;;;;0.90;0.90;;;;;;;5.64;75.74;98349.78;5062525;28;20076;-74
2023/05/18 02:58:42;;;;;;;0.73;0.73;;;;;;;5.63;75.90;98347.28;5061657;28;20101;-74
2023/05/18 03:01:17;;;;;;;0.80;0.80;;;;;;;5.65;75.76;98358.56;5064639;28;20123;-74
2023/05/18 03:03:51;;;;;;;0.93;0.93;;;;;;;5.71;75.53;98352.69;5060571;28;20052;-74
2023/05/18 03:06:22;;;;;;;0.77;0.77;;;;;;;5.72;75.36;98355.19;5050679;28;20072;-74
2023/05/18 03:08:50;;;;;;;0.50;0.50;;;;;;;5.75;74.93;98354.06;5058143;28;20048;-75
2023/05/18 03:11:17;;;;;;;0.63;0.63;;;;;;;5.64;75.30;98352.44;5065629;28;20037;-73
2023/05/18 03:13:46;;;;;;;0.75;0.75;;;;;;;5.64;75.45;98357.72;5062766;28;20103;-74
2023/05/18 03:16:15;;;;;;;0.80;0.80;;;;;;;5.56;75.69;98354.13;5063930;28;20522;-74
2023/05/18 03:18:44;;;;;;;0.52;0.52;;;;;;;5.40;76.53;98349.44;5056466;28;20534;-74
2023/05/18 03:21:14;;;;;;;0.52;0.52;;;;;;;5.48;76.12;98346.91;5060533;28;20068;-74
2023/05/18 03:23:41;;;;;;;0.75;0.75;;;;;;;5.47;76.09;98356.66;5063566;28;20044;-74
2023/05/18 03:26:11;;;;;;;0.90;0.90;;;;;;;5.58;75.41;98353.03;5059020;28;20087;-73
2023/05/18 03:28:38;;;;;;;1.05;1.05;;;;;;;5.71;74.54;98350.84;5062662;28;20040;-74
2023/05/18 03:31:06;;;;;;;0.80;0.80;;;;;;;5.67;74.82;98356.59;5060359;28;20044;-74
2023/05/18 03:33:34;;;;;;;0.50;0.50;;;;;;;5.57;75.11;98361.94;5061360;28;20487;-74
2023/05/18 03:36:03;;;;;;;0.63;0.63;;;;;;;5.57;75.08;98363.75;5059748;28;20124;-74
2023/05/18 03:38:32;;;;;;;0.90;0.90;;;;;;;5.53;74.89;98364.03;5059124;28;20507;-73
2023/05/18 03:41:06;;;;;;;0.77;0.77;;;;;;;5.57;74.74;98374.34;5066609;28;20043;-74
2023/05/18 03:43:34;;;;;;;0.20;0.20;;;;;;;5.42;75.19;98385.38;5068504;28;20446;-74
2023/05/18 03:46:01;;;;;;;0.77;0.77;;;;;;;5.40;75.03;98373.25;5077240;28;20043;-73
2023/05/18 03:48:29;;;;;;;1.10;1.10;;;;;;;5.37;74.98;98387.63;5062112;28;20052;-73
2023/05/18 03:50:57;;;;;;;1.05;1.05;;;;;;;5.32;74.96;98379.25;5060295;28;20487;-74
2023/05/18 03:53:28;;;;;;;0.77;0.77;;;;;;;5.30;74.87;98383.03;5056233;28;20095;-73
2023/05/18 03:55:57;;;;;;;0.65;0.65;;;;;;;5.31;75.06;98384.69;5058525;28;20040;-74
2023/05/18 03:58:26;;;;;;;0.15;0.15;;;;;;;5.39;74.53;98390.97;5060926;28;20445;-74
2023/05/18 04:00:53;;;;;;;0.90;0.90;;;;;;;5.41;74.17;98378.41;5066087;28;20553;-74
2023/05/18 04:03:23;;;;;;;0.77;0.77;;;;;;;5.33;74.75;98383.59;5055774;28;20098;-74
2023/05/18 04:05:52;;;;;;;0.77;0.77;;;;;;;5.40;74.68;98391.78;5060709;28;20075;-74
2023/05/18 04:08:19;;;;;;;0.77;0.77;;;;;;;5.39;74.69;98392.78;5063636;28;20075;-74
2023/05/18 04:10:47;;;;;;;0.85;0.85;;;;;;;5.28;75.25;98393.78;5054497;28;20063;-74
2023/05/18 04:13:16;;;;;;;0.73;0.73;;;;;;;5.32;75.14;98396.94;5062380;28;20048;-74
2023/05/18 04:15:43;;;;;;;0.80;0.80;;;;;;;5.36;74.73;98393.06;5066790;28;20048;-74
2023/05/18 04:18:13;;;;;;;0.95;0.95;;;;;;;5.38;74.64;98394.59;5064492;28;20045;-74
2023/05/18 04:20:44;;;;;;;0.77;0.77;;;;;;;5.34;74.78;98397.66;5059860;28;20053;-74
2023/05/18 04:23:12;;;;;;;1.00;1.00;;;;;;;5.42;74.36;98395.97;5060042;28;20616;-74
2023/05/18 04:25:40;;;;;;;0.60;0.60;;;;;;;5.52;73.85;98396.78;5064972;28;20044;-74
2023/05/18 04:28:09;;;;;;;0.60;0.60;;;;;;;5.38;74.77;98389.31;5062947;28;20040;-74
2023/05/18 04:30:38;;;;;;;0.73;0.73;;;;;;;5.31;75.02;98403.22;5064948;28;20051;-74
2023/05/18 04:33:06;;;;;;;0.60;0.60;;;;;;;5.22;75.59;98404.91;5062076;28;20045;-74
2023/05/18 04:35:34;;;;;;;0.55;0.55;;;;;;;5.16;75.83;98402.84;5064959;28;20053;-73
2023/05/18 04:38:02;;;;;;;0.70;0.70;;;;;;;5.25;76.12;98404.63;5064973;28;20051;-74
2023/05/18 04:40:32;;;;;;;0.75;0.75;;;;;;;5.37;75.28;98403.50;5061328;28;20091;-74
2023/05/18 04:43:00;;;;;;;0.70;0.70;;;;;;;5.44;75.09;98403.75;5068840;28;20066;-74
2023/05/18 04:45:30;;;;;;;0.60;0.60;;;;;;;5.46;75.04;98407.94;5071926;28;20507;-74
2023/05/18 04:48:01;;;;;;;0.68;0.68;;;;;;;5.50;74.87;98404.00;5059799;28;20041;-74
2023/05/18 04:50:29;;;;;;;0.65;0.65;;;;;;;5.55;75.00;98408.91;5070980;28;20052;-73
2023/05/18 04:53:00;;;;;;;0.40;0.40;;;;;;;5.69;74.60;98423.50;5070612;28;20448;-73
2023/05/18 04:55:29;;;;;;;0.60;0.60;;;;;;;5.74;74.65;98418.59;5062538;28;20053;-73
2023/05/18 04:58:03;;;;;;;0.70;0.70;;;;;;;5.76;74.57;98421.94;5064967;28;20049;-74
2023/05/18 05:00:31;;;;;;;0.73;0.73;;;;;;;5.76;74.72;98424.59;5061649;28;20372;-74
2023/05/18 05:02:58;;;;;;;0.60;0.60;;;;;;;5.85;74.80;98418.44;5056278;28;20083;-73
2023/05/18 05:05:29;;;;;;;0.75;0.75;;;;;;;5.91;74.79;98417.91;5067301;28;20043;-74
2023/05/18 05:07:57;;;;;;;0.70;0.70;;;;;;;6.07;74.38;98415.44;5067237;28;20450;-74
2023/05/18 05:10:26;;;;;;;1.02;1.02;;;;;;;6.10;74.34;98416.97;5070173;28;20127;-73
2023/05/18 05:12:54;;;;;;;0.30;0.30;;;;;;;6.15;73.86;98410.25;5065090;28;20400;-73
2023/05/18 05:15:22;;;;;;;0.60;0.60;;;;;;;6.33;73.68;98412.97;5063535;28;20041;-74
2023/05/18 05:17:50;;;;;;;0.80;0.80;;;;;;;6.32;73.17;98411.31;5068517;28;20048;-73
2023/05/18 05:20:18;;;;;;;0.30;0.30;;;;;;;6.34;73.87;98411.13;5067474;28;20411;-73
2023/05/18 05:22:48;;;;;;;0.70;0.70;;;;;;;6.50;73.19;98409.50;5067176;28;20044;-73
2023/05/18 05:25:21;;;;;;;0.60;0.60;;;;;;;6.60;72.84;98412.09;5052543;28;20045;-73
2023/05/18 05:27:50;;;;;;;0.57;0.57;;;;;;;6.72;72.29;98410.06;5066975;28;20053;-73
2023/05/18 05:30:20;;;;;;;1.25;1.25;;;;;;;6.84;71.89;98414.19;5060391;28;20037;-73
2023/05/18 05:32:48;;;;;;;1.05;1.05;;;;;;;6.91;71.14;98412.59;5053358;28;20041;-73
2023/05/18 05:35:15;;;;;;;0.65;0.65;;;;;;;6.88;71.21;98408.41;5049056;28;20136;-73
2023/05/18 05:37:45;;;;;;;0.70;0.70;;;;;;;6.78;71.58;98402.34;5062682;28;20119;-73
2023/05/18 05:40:14;;;;;;;0.75;0.75;;;;;;;6.91;71.61;98409.94;5062207;28;20033;-73
2023/05/18 05:42:44;;;;;;;0.85;0.85;;;;;;;7.02;71.26;98403.56;5057814;28;20049;-74
2023/05/18 05:45:12;;;;;;;0.80;0.80;;;;;;;7.12;70.96;98409.63;5066575;28;20040;-74
2023/05/18 05:47:48;;;;;;;0.82;0.82;;;;;;;7.03;71.01;98407.88;5058045;28;20080;-74
2023/05/18 05:50:17;;;;;;;0.70;0.70;;;;;;;7.18;70.63;98419.63;5061790;28;20151;-74
2023/05/18 05:52:47;;;;;;;0.77;0.77;;;;;;;7.21;70.44;98411.34;5061892;28;20569;-74
2023/05/18 05:55:17;;;;;;;1.05;1.05;;;;;;;7.18;70.67;98407.19;5068373;28;20522;-74
2023/05/18 05:57:44;;;;;;;0.77;0.77;;;;;;;7.31;70.45;98412.09;5063799;28;20128;-74
2023/05/18 06:00:13;;;;;;;0.80;0.80;;;;;;;7.23;70.73;98418.19;5063404;28;20084;-74
2023/05/18 06:02:52;;;;;;;0.60;0.60;;;;;;;7.43;70.27;98416.19;5071364;28;20064;-74
2023/05/18 06:05:27;;;;;;;0.30;0.30;;;;;;;7.36;70.25;98415.16;5062312;28;20465;-74
2023/05/18 06:07:56;;;;;;;0.75;0.75;;;;;;;7.49;70.10;98418.22;5058533;28;20052;-73
2023/05/18 06:10:25;;;;;;;0.60;0.60;;;;;;;7.62;69.85;98423.13;5060417;28;20068;-73
2023/05/18 06:12:53;;;;;;;0.50;0.50;;;;;;;7.68;69.56;98419.88;5060649;28;20226;-73
2023/05/18 06:15:24;;;;;;;0.98;0.98;;;;;;;7.79;69.44;98424.09;5058448;28;20048;-73
2023/05/18 06:17:52;;;;;;;0.98;0.98;;;;;;;7.84;69.25;98424.44;5065178;28;20051;-73
2023/05/18 06:20:21;;;;;;;0.75;0.75;;;;;;;7.94;69.13;98414.53;5062753;28;20076;-73
2023/05/18 06:22:49;;;;;;;0.77;0.77;;;;;;;7.98;68.60;98422.03;5044978;28;20144;-73
2023/05/18 06:25:26;;;;;;;0.80;0.80;;;;;;;7.92;68.57;98435.13;5068897;28;20083;-74
2023/05/18 06:28:12;;;;;;;0.60;0.60;;;;;;;7.96;68.39;98424.03;5059727;28;20048;-73
2023/05/18 06:30:49;;;;;;;0.77;0.77;;;;;;;7.98;68.60;98421.22;5058380;28;20095;-73
2023/05/18 06:33:27;;;;;;;0.77;0.77;;;;;;;8.08;68.65;98428.09;5060750;28;20091;-73
2023/05/18 06:35:56;;;;;;;0.57;0.57;;;;;;;8.25;68.46;98425.50;5062538;28;20075;-73
2023/05/18 06:38:24;;;;;;;0.90;0.90;;;;;;;8.30;67.92;98431.19;5059513;28;20054;-73
2023/05/18 06:40:53;;;;;;;0.90;0.90;;;;;;;8.44;67.43;98428.75;5062525;28;20119;-73
2023/05/18 06:43:21;;;;;;;0.73;0.73;;;;;;;8.44;67.11;98419.94;5069852;28;20091;-73
2023/05/18 06:45:56;;;;;;;0.63;0.63;;;;;;;8.55;66.98;98416.16;5065665;28;20044;-72
2023/05/18 06:48:30;;;;;;;0.80;0.80;;;;;;;8.62;66.57;98422.50;5057415;28;20040;-73
2023/05/18 06:50:58;;;;;;;0.30;0.30;;;;;;;8.80;66.22;98429.38;5049925;28;20546;-73
2023/05/18 06:53:26;;;;;;;0.90;0.90;;;;;;;8.96;65.93;98427.75;5058407;28;20043;-73
2023/05/18 06:55:56;;;;;;;0.98;0.98;;;;;;;9.10;64.87;98427.94;5067500;28;20049;-72
2023/05/18 06:58:23;;;;;;;0.65;0.65;;;;;;;9.14;64.52;98423.09;5064571;28;20047;-73
2023/05/18 07:00:53;;;;;;;0.70;0.70;;;;;;;9.29;64.43;98431.28;5063955;28;20106;-75
2023/05/18 07:03:21;;;;;;;0.90;0.85;;;;;;;9.37;63.73;98424.13;5085709;28;20036;-73
2023/05/18 07:05:48;;;;;;;0.63;0.63;;;;;;;9.46;63.25;98430.28;5065827;28;20123;-73
2023/05/18 07:08:16;;;;;;;0.55;0.55;;;;;;;9.57;63.19;98429.94;5070811;28;20048;-73
2023/05/18 07:10:43;;;;;;;0.90;0.90;;;;;;;9.62;62.39;98424.94;5055406;28;20049;-73
2023/05/18 07:13:12;;;;;;;0.50;0.50;;;;;;;9.70;61.97;98426.78;5054047;28;20052;-73
2023/05/18 07:15:40;;;;;;;0.73;0.73;;;;;;;9.83;62.77;98427.09;5069894;28;20094;-73
2023/05/18 07:18:08;;;;;;;0.60;0.60;;;;;;;9.92;61.25;98424.25;5054243;28;20037;-73
2023/05/18 07:20:35;;;;;;;0.73;0.73;;;;;;;10.03;61.42;98424.88;5063851;28;20048;-73
2023/05/18 07:23:03;;;;;;;0.57;0.57;;;;;;;9.81;60.90;98426.41;5070098;28;20538;-73
2023/05/18 07:25:30;;;;;;;0.93;0.93;;;;;;;10.11;61.24;98422.19;5071817;28;20051;-73
2023/05/18 07:27:58;;;;;;;0.88;0.88;;;;;;;10.26;60.66;98416.00;5065714;28;20054;-73
2023/05/18 07:30:27;;;;;;;0.57;0.57;;;;;;;10.36;59.76;98410.47;5071852;28;20048;-73
2023/05/18 07:32:55;;;;;;;0.70;0.70;;;;;;;10.56;59.93;98410.88;5068609;28;20527;-73
2023/05/18 07:35:25;;;;;;;0.82;0.82;;;;;;;10.75;57.72;98406.94;5084414;28;20077;-73
2023/05/18 07:37:53;;;;;;;0.60;0.60;;;;;;;10.83;57.44;98402.38;5071197;28;20155;-73
2023/05/18 07:40:21;;;;;;;0.70;0.70;;;;;;;11.03;57.73;98406.25;5061247;28;20037;-74
2023/05/18 07:42:48;;;;;;;0.55;0.55;;;;;;;11.09;56.59;98404.72;5052734;28;20213;-75
2023/05/18 07:45:16;;;;;;;0.60;0.60;;;;;;;11.29;56.16;98402.41;5054834;28;20055;-73
2023/05/18 07:47:45;;;;;;;0.88;0.88;;;;;;;11.51;55.90;98398.88;5053783;28;20072;-72
2023/05/18 07:50:12;;;;;;;0.68;0.68;;;;;;;11.46;55.77;98398.56;5069642;28;20047;-72
2023/05/18 07:52:40;;;;;;;0.73;0.73;;;;;;;11.72;55.27;98399.03;5062889;28;20040;-73
2023/05/18 07:55:08;;;;;;;0.77;0.77;;;;;;;11.87;54.48;98400.91;5058943;28;20041;-73
2023/05/18 07:57:36;;;;;;;0.68;0.68;;;;;;;12.02;53.69;98410.63;5054083;28;20051;-74
2023/05/18 08:00:05;;;;;;;0.70;0.70;;;;;;;12.19;53.25;98411.25;5062675;28;20527;-74
2023/05/18 08:02:38;;;;;;;0.75;0.75;;;;;;;12.36;53.58;98410.03;5055379;28;20094;-73
2023/05/18 08:05:09;;;;;;;0.63;0.63;;;;;;;12.41;52.56;98402.31;5057176;28;20048;-72
2023/05/18 08:07:37;;;;;;;0.63;0.63;;;;;;;12.63;51.61;98400.53;5061119;28;20098;-73
2023/05/18 08:10:05;;;;;;;0.60;0.60;;;;;;;12.79;50.25;98408.31;5067160;28;20036;-73
2023/05/18 08:12:33;;;;;;;0.65;0.65;;;;;;;13.05;50.60;98405.13;5062176;28;20040;-73
2023/05/18 08:15:00;;;;;;;0.52;0.52;;;;;;;13.22;49.89;98403.03;5072950;28;20037;-72
2023/05/18 08:17:28;;;;;;;0.70;0.70;;;;;;;13.40;48.78;98407.94;5070345;28;20056;-72
2023/05/18 08:19:55;;;;;;;0.68;0.68;;;;;;;13.42;46.71;98408.59;5065228;28;20114;-73
2023/05/18 08:22:24;;;;;;;0.70;0.70;;;;;;;13.62;45.53;98408.75;5059679;28;20063;-73
2023/05/18 08:24:53;;;;;;;0.52;0.52;;;;;;;13.75;44.48;98419.59;5054410;28;20053;-72
2023/05/18 08:27:20;;;;;;;0.50;0.50;;;;;;;13.83;44.32;98406.03;5063693;28;20073;-72
2023/05/18 08:29:48;;;;;;;0.75;0.75;;;;;;;13.96;44.74;98417.72;5060821;28;20053;-73
2023/05/18 08:32:16;;;;;;;0.10;0.10;;;;;;;14.10;43.71;98409.75;5065868;28;20403;-73
2023/05/18 08:34:43;;;;;;;0.55;0.55;;;;;;;14.18;43.64;98406.91;5062583;28;20099;-72
2023/05/18 08:37:11;;;;;;;0.43;0.43;;;;;;;14.19;43.47;98419.31;5086708;22;20498;-70
2023/05/18 08:39:40;;;;;;;0.60;0.60;;;;;;;14.09;42.95;98414.28;5062716;28;20045;-70
2023/05/18 08:42:11;;;;;;;0.77;0.77;;;;;;;14.16;43.17;98411.63;5058404;28;20041;-70
2023/05/18 08:44:45;;;;;;;0.65;0.65;;;;;;;13.86;42.64;98405.66;5068245;28;20123;-70
2023/05/18 08:47:15;;;;;;;0.60;0.60;;;;;;;13.56;42.92;98407.69;5057182;28;20045;-69
2023/05/18 08:49:43;;;;;;;0.30;0.30;;;;;;;13.70;43.58;98401.44;5061723;28;20400;-70
2023/05/18 08:52:16;;;;;;;0.80;0.80;;;;;;;14.00;43.11;98401.22;5038186;28;20051;-72
2023/05/18 08:54:46;;;;;;;0.80;0.80;;;;;;;14.09;42.85;98400.88;5067893;28;20051;-70
2023/05/18 08:57:14;;;;;;;0.60;0.60;;;;;;;13.99;43.76;98408.44;5066443;28;20403;-70
2023/05/18 08:59:42;;;;;;;0.70;0.63;;;;;;;14.30;43.35;98389.22;5063605;28;20044;-70
2023/05/18 09:02:10;;;;;;;0.88;0.88;;;;;;;14.48;43.08;98397.59;5067572;28;20040;-70
2023/05/18 09:04:38;;;;;;;0.50;0.50;;;;;;;14.50;42.89;98387.50;5063896;28;20050;-70
2023/05/18 09:07:06;;;;;;;0.60;0.60;;;;;;;14.41;43.34;98387.84;5057052;28;20045;-71
2023/05/18 09:09:35;;;;;;;0.60;0.60;;;;;;;14.40;42.92;98381.66;5064269;28;20058;-70
2023/05/18 09:12:06;;;;;;;0.50;0.50;;;;;;;14.63;43.30;98389.41;5063009;28;20052;-70
2023/05/18 09:14:33;;;;;;;0.52;0.52;;;;;;;14.61;43.12;98389.59;5064678;28;20135;-72
2023/05/18 09:17:02;;;;;;;0.68;0.68;;;;;;;14.44;43.00;98387.44;5063541;28;20124;-71
2023/05/18 09:19:29;;;;;;;0.65;0.65;;;;;;;14.49;43.64;98383.13;5073323;28;20048;-72
2023/05/18 09:21:57;;;;;;;0.60;0.60;;;;;;;14.86;42.90;98387.19;5071313;28;20036;-71
2023/05/18 09:24:24;;;;;;;0.63;0.63;;;;;;;14.90;42.71;98384.94;5069708;28;20039;-72
2023/05/18 09:26:52;;;;;;;0.50;0.50;;;;;;;14.73;41.96;98373.72;5068581;28;20044;-72
2023/05/18 09:29:22;;;;;;;0.63;0.63;;;;;;;14.65;42.39;98379.25;5072719;28;20083;-69
2023/05/18 09:31:52;;;;;;;0.40;0.40;;;;;;;14.65;42.91;98381.94;5065792;28;20045;-69
2023/05/18 09:34:20;;;;;;;0.60;0.60;;;;;;;14.77;42.11;98379.50;5068005;28;20043;-68
2023/05/18 09:36:51;;;;;;;0.70;0.70;;;;;;;14.78;42.21;98378.50;5064674;28;20066;-69
2023/05/18 09:39:19;;;;;;;0.20;0.20;;;;;;;14.73;42.45;98381.78;5054593;28;20423;-68
2023/05/18 09:41:46;;;;;;;0.68;0.68;;;;;;;14.79;43.01;98375.59;5067166;28;20054;-69
2023/05/18 09:44:15;;;;;;;0.68;0.68;;;;;;;14.73;42.26;98378.28;5071608;28;20260;-69
2023/05/18 09:46:44;;;;;;;0.60;0.60;;;;;;;14.77;42.24;98372.28;5070588;28;20056;-68
2023/05/18 09:49:12;;;;;;;0.50;0.50;;;;;;;14.86;41.77;98354.09;5070302;28;20119;-69
2023/05/18 09:51:39;;;;;;;0.28;0.28;;;;;;;15.00;41.47;98374.63;5072838;28;20475;-69
2023/05/18 09:54:09;;;;;;;0.50;0.50;;;;;;;15.06;41.15;98368.41;5069372;28;20029;-70
2023/05/18 09:56:37;;;;;;;0.50;0.50;;;;;;;15.02;40.53;98361.81;5059277;28;20051;-69
2023/05/18 09:59:08;;;;;;;0.52;0.52;;;;;;;15.15;40.59;98361.84;5063048;28;20055;-71
2023/05/18 10:01:37;;;;;;;0.70;0.70;;;;;;;15.47;39.69;98357.50;5072986;28;20140;-72
2023/05/18 10:04:06;;;;;;;0.25;0.25;;;;;;;15.75;38.45;98362.72;5053139;28;20412;-70
2023/05/18 10:06:34;;;;;;;0.50;0.50;;;;;;;15.56;38.15;98350.94;5072098;28;20051;-69
2023/05/18 10:09:02;;;;;;;0.70;0.70;;;;;;;15.20;38.62;98353.16;5061140;28;20043;-71
2023/05/18 10:11:31;;;;;;;0.45;0.45;;;;;;;15.17;38.92;98353.53;5061673;28;20045;-72
2023/05/18 10:13:59;;;;;;;0.68;0.68;;;;;;;15.15;38.72;98350.25;5070965;28;20032;-71
2023/05/18 10:16:26;;;;;;;0.50;0.50;;;;;;;15.23;39.14;98358.13;5072449;28;20488;-71
2023/05/18 10:18:54;;;;;;;0.20;0.10;;;;;;;15.16;39.81;98350.03;5061275;28;20479;-69
2023/05/18 10:21:24;;;;;;;0.50;0.50;;;;;;;15.30;39.49;98361.63;5063753;28;20491;-72
2023/05/18 10:23:52;;;;;;;0.43;0.43;;;;;;;15.38;38.83;98354.19;5062992;28;20049;-70
2023/05/18 10:26:22;;;;;;;0.40;0.40;;;;;;;15.33;38.74;98350.47;5067859;28;20515;-72
2023/05/18 10:28:51;;;;;;;0.63;0.63;;;;;;;15.45;38.71;98354.22;5072528;28;20155;-69
2023/05/18 10:31:20;;;;;;;0.70;0.70;;;;;;;15.25;39.24;98348.81;5061956;28;20052;-71
2023/05/18 10:33:50;;;;;;;0.52;0.52;;;;;;;15.59;39.28;98349.66;5063239;28;20040;-72
2023/05/18 10:36:17;;;;;;;0.40;0.40;;;;;;;15.69;38.67;98344.69;5063157;28;20040;-69
2023/05/18 10:38:46;;;;;;;0.57;0.57;;;;;;;15.74;38.28;98353.81;5061054;28;20055;-70
2023/05/18 10:41:14;;;;;;;0.47;0.47;;;;;;;15.76;38.72;98346.34;5072865;28;20048;-72
2023/05/18 10:43:44;;;;;;;0.20;0.20;;;;;;;15.90;38.38;98339.06;5057454;28;20505;-72
2023/05/18 10:46:12;;;;;;;0.50;0.50;;;;;;;16.21;38.18;98340.22;5060507;28;20051;-70
2023/05/18 10:48:40;;;;;;;0.52;0.52;;;;;;;15.87;37.79;98336.81;5065975;28;20495;-70
2023/05/18 10:51:08;;;;;;;0.60;0.60;;;;;;;15.95;38.67;98343.84;5063897;28;20062;-70
2023/05/18 10:53:36;;;;;;;0.60;0.60;;;;;;;15.97;38.33;98333.69;5059371;28;20064;-70
2023/05/18 10:56:06;;;;;;;0.40;0.40;;;;;;;16.04;37.88;98332.63;5065462;28;20041;-69
2023/05/18 10:58:35;;;;;;;0.50;0.50;;;;;;;16.00;37.05;98341.31;5037680;28;20041;-70
2023/05/18 11:01:06;;;;;;;0.50;0.50;;;;;;;15.91;37.42;98340.72;5068152;28;20044;-71
2023/05/18 11:03:33;;;;;;;0.55;0.55;;;;;;;15.86;36.88;98345.94;5052314;28;20040;-71
2023/05/18 11:06:07;;;;;;;0.20;0.20;;;;;;;15.88;36.75;98338.47;5059084;28;20438;-70
2023/05/18 11:08:47;;;;;;;0.30;0.30;;;;;;;15.91;37.40;98342.59;5066469;28;20055;-71
2023/05/18 11:11:17;;;;;;;0.60;0.60;;;;;;;16.03;37.68;98343.59;5061946;28;20067;-71
2023/05/18 11:13:48;;;;;;;0.50;0.50;;;;;;;16.08;37.74;98339.25;5060678;28;20048;-70
2023/05/18 11:16:17;;;;;;;0.57;0.57;;;;;;;16.08;38.25;98346.50;5062743;28;20047;-70
2023/05/18 11:18:46;;;;;;;0.47;0.47;;;;;;;15.82;38.42;98343.84;5071243;28;20047;-71
2023/05/18 11:21:21;;;;;;;0.55;0.55;;;;;;;15.90;37.87;98341.75;5048166;28;20496;-70
2023/05/18 11:24:15;;;;;;;0.47;0.47;;;;;;;16.00;38.04;98346.72;5066589;28;20072;-70
2023/05/18 11:26:45;;;;;;;0.40;0.40;;;;;;;15.67;37.89;98336.84;5044715;28;20545;-70
2023/05/18 11:29:18;;;;;;;4.32;0.60;;;;;;;15.85;38.47;98329.97;5060716;28;20043;-70
2023/05/18 11:31:46;;;;;;;0.40;0.40;;;;;;;16.04;38.96;98335.31;5065941;28;20052;-72
2023/05/18 11:34:40;;;;;;;0.40;0.40;;;;;;;16.25;38.35;98336.09;5060658;28;20044;-70
2023/05/18 11:37:09;;;;;;;0.73;0.73;;;;;;;16.08;38.44;98327.66;5063659;28;20099;-70
2023/05/18 11:39:37;;;;;;;0.40;0.40;;;;;;;15.91;39.09;98334.50;5050049;28;20063;-70
2023/05/18 11:42:19;;;;;;;0.68;0.68;;;;;;;16.07;38.65;98334.91;5069750;28;20120;-72
2023/05/18 11:44:51;;;;;;;0.60;0.60;;;;;;;16.04;38.57;98331.78;5066247;28;20044;-70
2023/05/18 11:47:19;;;;;;;0.47;0.47;;;;;;;16.08;38.97;98333.03;5068429;28;20040;-69
2023/05/18 11:49:51;;;;;;;0.60;0.60;;;;;;;15.90;38.88;98314.00;5066779;28;20052;-70